Time;durP1;ratioP1;P1;durP2;ratioP2;P2;SDS_P1;SDS_P2;PMS_P1;PMS_P2;Temp;Humidity;BMP_temperature;BMP_pressure;BME280_temperature;BME280_humidity;BME280_pressure;Samples;Min_cycle;Max_cycle;Signal;HPM_P1;HPM_P2
2022/03/25 00:02:06;;;;;;;57.60;33.70;;;10.10;74.50;;;;;;5032241;22;20038;-76
2022/03/25 00:04:32;;;;;;;54.83;32.50;;;10.10;74.70;;;;;;4997460;28;20037;-76
2022/03/25 00:06:58;;;;;;;51.75;31.92;;;10.00;74.80;;;;;;4982162;28;20042;-75
2022/03/25 00:09:23;;;;;;;56.40;32.83;;;10.00;74.90;;;;;;4980184;28;20549;-75
2022/03/25 00:11:50;;;;;;;52.60;31.35;;;10.00;75.20;;;;;;4977654;28;20045;-75
2022/03/25 00:14:16;;;;;;;60.80;33.30;;;9.90;75.20;;;;;;4949084;28;20221;-75
2022/03/25 00:16:43;;;;;;;55.75;32.95;;;9.80;75.60;;;;;;4986785;28;20030;-76
2022/03/25 00:19:09;;;;;;;55.63;32.58;;;9.90;75.90;;;;;;4968288;28;20022;-75
2022/03/25 00:21:36;;;;;;;62.30;33.47;;;9.80;76.00;;;;;;4979950;28;20042;-75
2022/03/25 00:24:01;;;;;;;55.58;31.73;;;9.80;76.00;;;;;;4981085;28;20027;-75
2022/03/25 00:26:27;;;;;;;53.67;32.53;;;9.80;76.30;;;;;;4978209;28;20058;-75
2022/03/25 00:28:53;;;;;;;54.33;32.72;;;9.70;76.40;;;;;;4946751;28;20022;-75
2022/03/25 00:31:18;;;;;;;59.83;33.25;;;9.70;76.60;;;;;;4947542;28;20031;-75
2022/03/25 00:33:49;;;;;;;55.38;31.90;;;9.70;76.80;;;;;;4964924;28;20022;-76
2022/03/25 00:36:18;;;;;;;60.87;33.43;;;9.70;77.00;;;;;;4979898;28;20036;-76
2022/03/25 00:38:45;;;;;;;55.03;31.35;;;9.70;77.10;;;;;;4980467;28;20131;-76
2022/03/25 00:41:12;;;;;;;55.45;30.88;;;9.70;76.90;;;;;;4981105;28;20031;-75
2022/03/25 00:43:44;;;;;;;49.58;30.88;;;9.60;77.40;;;;;;4980375;28;20037;-75
2022/03/25 00:46:11;;;;;;;61.28;32.45;;;9.60;77.60;;;;;;4962087;28;20387;-76
2022/03/25 00:48:37;;;;;;;55.10;32.97;;;9.60;77.60;;;;;;4963942;28;20022;-75
2022/03/25 00:51:04;;;;;;;55.85;31.98;;;9.60;77.80;;;;;;4978941;28;20031;-75
2022/03/25 00:53:31;;;;;;;59.63;33.47;;;9.60;78.00;;;;;;4980911;28;20030;-75
2022/03/25 00:56:03;;;;;;;52.33;29.52;;;9.60;78.40;;;;;;4962748;28;20145;-75
2022/03/25 00:58:29;;;;;;;53.17;30.08;;;9.60;78.00;;;;;;4978444;28;20569;-75
2022/03/25 01:00:56;;;;;;;59.85;32.03;;;9.50;78.20;;;;;;4962498;28;20041;-75
2022/03/25 01:03:22;;;;;;;59.72;32.92;;;9.50;78.30;;;;;;4962611;28;20059;-75
2022/03/25 01:05:49;;;;;;;53.45;32.05;;;9.50;78.30;;;;;;4960536;28;20077;-75
2022/03/25 01:08:15;;;;;;;56.08;31.30;;;9.50;78.40;;;;;;4960682;28;20053;-76
2022/03/25 01:10:43;;;;;;;54.55;31.27;;;9.40;78.40;;;;;;4962694;28;20057;-75
2022/03/25 01:13:10;;;;;;;55.25;32.33;;;9.40;78.90;;;;;;4964030;28;20058;-75
2022/03/25 01:15:35;;;;;;;55.05;32.00;;;9.40;79.30;;;;;;4961585;28;20402;-75
2022/03/25 01:18:01;;;;;;;56.13;32.55;;;9.30;79.10;;;;;;4963806;28;20030;-75
2022/03/25 01:20:27;;;;;;;55.75;31.42;;;9.30;79.30;;;;;;4945113;28;20062;-75
2022/03/25 01:22:53;;;;;;;59.53;32.83;;;9.30;79.60;;;;;;4961764;28;20030;-76
2022/03/25 01:25:19;;;;;;;58.30;32.15;;;9.30;79.60;;;;;;4978586;28;20045;-75
2022/03/25 01:27:44;;;;;;;57.83;30.73;;;9.20;79.60;;;;;;4961004;28;20030;-75
2022/03/25 01:30:11;;;;;;;54.88;30.23;;;9.30;80.50;;;;;;4979813;28;20458;-75
2022/03/25 01:32:37;;;;;;;50.70;30.48;;;9.20;79.90;;;;;;4945006;28;20450;-76
2022/03/25 01:35:06;;;;;;;54.00;30.23;;;9.20;79.90;;;;;;4980877;28;20034;-75
2022/03/25 01:37:34;;;;;;;53.40;32.03;;;9.20;80.50;;;;;;4979828;28;20848;-76
2022/03/25 01:40:00;;;;;;;57.10;31.95;;;9.10;80.90;;;;;;4960520;28;20034;-76
2022/03/25 01:42:34;;;;;;;55.10;30.08;;;9.10;81.20;;;;;;4960609;28;20030;-76
2022/03/25 01:45:01;;;;;;;51.58;30.83;;;9.10;81.20;;;;;;4962146;28;20042;-76
2022/03/25 01:47:28;;;;;;;58.05;32.20;;;9.00;81.40;;;;;;4979881;28;20035;-75
2022/03/25 01:49:55;;;;;;;53.33;30.98;;;9.00;81.60;;;;;;4981449;28;20035;-77
2022/03/25 01:52:21;;;;;;;53.90;30.50;;;9.00;81.40;;;;;;4962770;28;20023;-76
2022/03/25 01:54:47;;;;;;;52.03;29.90;;;9.00;81.50;;;;;;4961431;28;20041;-76
2022/03/25 01:57:12;;;;;;;53.33;31.08;;;8.90;81.90;;;;;;4976959;28;20696;-77
2022/03/25 01:59:39;;;;;;;53.10;29.65;;;8.90;82.40;;;;;;4980574;28;20049;-77
2022/03/25 02:02:06;;;;;;;57.10;30.77;;;8.90;82.60;;;;;;4978017;28;20038;-75
2022/03/25 02:04:32;;;;;;;55.15;30.40;;;8.90;82.40;;;;;;4961532;28;20035;-76
2022/03/25 02:06:58;;;;;;;55.03;29.27;;;8.90;82.60;;;;;;4965738;28;20410;-76
2022/03/25 02:09:25;;;;;;;56.10;30.85;;;8.90;83.00;;;;;;4962663;28;20035;-76
2022/03/25 02:11:51;;;;;;;48.55;29.08;;;8.90;83.10;;;;;;4976908;28;20037;-75
2022/03/25 02:14:16;;;;;;;51.95;29.63;;;8.90;82.80;;;;;;4961224;28;20042;-76
2022/03/25 02:16:44;;;;;;;56.17;29.45;;;8.90;83.30;;;;;;4960993;28;20026;-76
2022/03/25 02:19:12;;;;;;;47.67;28.67;;;8.90;83.10;;;;;;4960614;28;20034;-76
2022/03/25 02:21:41;;;;;;;52.63;29.27;;;8.80;83.30;;;;;;4959849;28;20042;-76
2022/03/25 02:24:09;;;;;;;49.58;28.10;;;8.80;83.60;;;;;;4961983;28;20023;-76
2022/03/25 02:26:36;;;;;;;56.83;30.83;;;8.80;83.70;;;;;;4960605;28;20514;-76
2022/03/25 02:29:04;;;;;;;48.10;27.75;;;8.70;83.70;;;;;;4960824;28;20026;-75
2022/03/25 02:31:29;;;;;;;59.65;30.40;;;8.70;84.00;;;;;;4960389;28;20142;-76
2022/03/25 02:34:04;;;;;;;51.03;29.25;;;8.70;84.10;;;;;;4982866;28;20094;-76
2022/03/25 02:36:36;;;;;;;52.72;29.73;;;8.70;84.30;;;;;;4962076;28;20787;-75
2022/03/25 02:39:03;;;;;;;51.25;29.58;;;8.60;84.40;;;;;;4979095;28;20160;-75
2022/03/25 02:41:29;;;;;;;54.42;30.45;;;8.60;84.60;;;;;;4960571;28;20114;-75
2022/03/25 02:43:54;;;;;;;53.85;30.35;;;8.50;84.80;;;;;;4977610;28;20146;-75
2022/03/25 02:46:20;;;;;;;54.33;30.02;;;8.50;84.90;;;;;;4959727;28;20034;-75
2022/03/25 02:48:45;;;;;;;48.78;29.23;;;8.60;85.10;;;;;;4957616;28;20097;-76
2022/03/25 02:51:11;;;;;;;52.47;29.15;;;8.50;85.40;;;;;;4946750;28;20398;-76
2022/03/25 02:53:37;;;;;;;53.35;29.58;;;8.50;85.90;;;;;;4960155;28;20359;-75
2022/03/25 02:56:02;;;;;;;48.10;26.52;;;8.50;85.80;;;;;;4959837;28;20502;-75
2022/03/25 02:58:28;;;;;;;54.88;29.75;;;8.40;85.90;;;;;;4978872;28;20268;-75
2022/03/25 03:00:54;;;;;;;49.83;28.67;;;8.40;86.10;;;;;;4978120;28;20117;-75
2022/03/25 03:03:19;;;;;;;56.90;29.75;;;8.30;87.20;;;;;;4957719;28;20677;-75
2022/03/25 03:05:45;;;;;;;51.83;28.92;;;8.40;87.40;;;;;;4976751;28;20038;-75
2022/03/25 03:08:11;;;;;;;50.35;28.33;;;8.40;87.70;;;;;;4975688;28;20037;-75
2022/03/25 03:10:37;;;;;;;51.25;29.27;;;8.40;87.80;;;;;;4976742;28;20030;-75
2022/03/25 03:13:04;;;;;;;53.85;29.52;;;8.40;87.80;;;;;;4958528;28;20052;-75
2022/03/25 03:15:29;;;;;;;56.25;30.42;;;8.40;88.20;;;;;;4977492;28;20038;-75
2022/03/25 03:17:55;;;;;;;49.65;29.52;;;8.40;88.60;;;;;;4961665;28;20030;-76
2022/03/25 03:20:21;;;;;;;54.30;29.48;;;8.30;89.30;;;;;;4963839;28;20074;-75
2022/03/25 03:22:48;;;;;;;51.67;29.33;;;8.30;89.50;;;;;;4960946;28;20046;-75
2022/03/25 03:25:15;;;;;;;51.55;28.48;;;8.30;89.70;;;;;;4965106;28;20536;-75
2022/03/25 03:27:41;;;;;;;54.70;30.55;;;8.30;90.20;;;;;;4963871;28;20039;-76
2022/03/25 03:30:11;;;;;;;53.28;29.98;;;8.30;90.20;;;;;;4981910;28;20129;-76
2022/03/25 03:32:37;;;;;;;50.88;29.45;;;8.30;90.30;;;;;;4980592;28;20030;-75
2022/03/25 03:35:04;;;;;;;53.78;27.88;;;8.30;90.40;;;;;;4980979;28;20038;-76
2022/03/25 03:37:29;;;;;;;56.33;29.63;;;8.30;90.60;;;;;;4964802;28;20082;-75
2022/03/25 03:39:55;;;;;;;47.35;27.20;;;8.30;90.70;;;;;;4977691;28;20034;-76
2022/03/25 03:42:21;;;;;;;52.38;29.92;;;8.20;90.70;;;;;;4988436;28;20030;-75
2022/03/25 03:44:47;;;;;;;48.50;28.52;;;8.20;90.90;;;;;;4968812;28;20406;-75
2022/03/25 03:47:14;;;;;;;45.88;27.27;;;8.10;91.10;;;;;;4967523;28;20110;-76
2022/03/25 03:49:40;;;;;;;49.28;28.42;;;8.10;91.30;;;;;;4964333;28;20054;-75
2022/03/25 03:52:08;;;;;;;52.92;28.27;;;8.10;91.50;;;;;;4981699;28;20061;-75
2022/03/25 03:54:36;;;;;;;52.85;30.48;;;8.10;91.90;;;;;;4964611;28;20038;-75
2022/03/25 03:57:02;;;;;;;57.50;31.33;;;8.10;92.20;;;;;;4965648;28;20022;-75
2022/03/25 03:59:28;;;;;;;56.75;30.45;;;8.10;92.50;;;;;;4979232;28;20050;-75
2022/03/25 04:01:55;;;;;;;55.15;31.30;;;8.20;92.70;;;;;;4981765;28;20101;-76
2022/03/25 04:04:21;;;;;;;49.88;28.98;;;8.20;92.90;;;;;;4963699;28;20114;-76
2022/03/25 04:06:46;;;;;;;51.40;29.23;;;8.10;92.90;;;;;;4954867;28;20029;-76
2022/03/25 04:09:12;;;;;;;50.92;29.73;;;8.10;93.00;;;;;;4963793;28;20042;-76
2022/03/25 04:11:37;;;;;;;50.05;28.50;;;8.10;93.40;;;;;;4980127;28;20037;-76
2022/03/25 04:14:03;;;;;;;58.17;29.65;;;8.00;93.70;;;;;;4963456;28;20981;-76
2022/03/25 04:16:29;;;;;;;57.78;30.42;;;8.00;94.30;;;;;;4980811;28;20027;-76
2022/03/25 04:18:58;;;;;;;59.17;33.00;;;8.00;94.70;;;;;;4980648;28;20034;-76
2022/03/25 04:21:24;;;;;;;53.40;31.40;;;8.00;95.30;;;;;;4948859;28;20022;-75
2022/03/25 04:23:50;;;;;;;62.70;31.63;;;8.00;95.40;;;;;;4983516;28;20049;-75
2022/03/25 04:26:16;;;;;;;56.58;30.88;;;8.00;95.70;;;;;;4949077;28;20435;-76
2022/03/25 04:28:42;;;;;;;52.53;29.75;;;8.00;95.70;;;;;;4963329;28;20066;-76
2022/03/25 04:31:07;;;;;;;56.65;30.95;;;7.90;95.80;;;;;;4949031;28;20022;-76
2022/03/25 04:33:34;;;;;;;57.97;33.58;;;7.90;96.10;;;;;;4947067;28;20157;-76
2022/03/25 04:36:01;;;;;;;63.17;32.92;;;7.90;96.00;;;;;;4962283;28;20027;-76
2022/03/25 04:38:27;;;;;;;63.00;34.17;;;7.90;96.00;;;;;;4963128;28;20515;-75
2022/03/25 04:40:53;;;;;;;61.25;34.33;;;7.90;96.20;;;;;;4980246;28;20061;-75
2022/03/25 04:43:19;;;;;;;66.50;37.20;;;7.90;96.20;;;;;;4981583;28;20027;-76
2022/03/25 04:45:44;;;;;;;67.93;39.40;;;7.80;96.40;;;;;;4964397;28;20084;-76
2022/03/25 04:48:11;;;;;;;72.32;37.28;;;7.80;96.50;;;;;;4979386;28;20116;-77
2022/03/25 04:50:38;;;;;;;68.88;36.40;;;7.80;96.80;;;;;;4979752;28;20052;-76
2022/03/25 04:53:05;;;;;;;61.78;33.70;;;7.80;96.70;;;;;;4962491;28;20062;-75
2022/03/25 04:55:30;;;;;;;65.70;37.25;;;7.70;96.80;;;;;;4980153;28;20035;-75
2022/03/25 04:57:57;;;;;;;64.97;36.42;;;7.60;97.20;;;;;;4963220;28;20048;-75
2022/03/25 05:00:22;;;;;;;70.43;37.15;;;7.60;97.50;;;;;;4962429;28;20058;-74
2022/03/25 05:02:48;;;;;;;76.28;39.03;;;7.60;97.60;;;;;;4981148;28;20529;-75
2022/03/25 05:05:14;;;;;;;68.00;38.08;;;7.70;97.70;;;;;;4961893;28;20026;-76
2022/03/25 05:07:44;;;;;;;72.68;40.25;;;7.60;97.80;;;;;;4968998;28;20105;-76
2022/03/25 05:10:11;;;;;;;78.85;40.50;;;7.60;97.90;;;;;;4981821;28;20042;-76
2022/03/25 05:12:38;;;;;;;75.15;39.17;;;7.60;98.00;;;;;;4946487;28;20066;-75
2022/03/25 05:15:05;;;;;;;74.13;40.05;;;7.60;98.10;;;;;;4947675;28;20034;-75
2022/03/25 05:17:31;;;;;;;67.82;35.63;;;7.60;98.10;;;;;;4979566;28;20034;-75
2022/03/25 05:19:57;;;;;;;75.53;39.85;;;7.60;98.20;;;;;;4962091;28;20027;-74
2022/03/25 05:22:22;;;;;;;76.07;39.58;;;7.60;98.40;;;;;;4962615;28;20098;-75
2022/03/25 05:24:48;;;;;;;73.72;39.25;;;7.60;98.60;;;;;;4946711;28;20113;-75
2022/03/25 05:27:14;;;;;;;77.25;41.78;;;7.60;98.70;;;;;;4978808;28;20034;-75
2022/03/25 05:29:40;;;;;;;78.28;39.95;;;7.60;98.80;;;;;;4963765;28;20034;-77
2022/03/25 05:32:06;;;;;;;78.90;39.92;;;7.60;99.20;;;;;;4947863;28;20092;-75
2022/03/25 05:34:32;;;;;;;78.35;39.25;;;7.60;99.30;;;;;;4968113;28;20122;-76
2022/03/25 05:36:57;;;;;;;83.82;38.08;;;7.60;99.30;;;;;;4962968;28;20110;-76
2022/03/25 05:39:23;;;;;;;72.70;38.63;;;7.60;99.40;;;;;;4980855;28;20030;-76
2022/03/25 05:41:49;;;;;;;65.55;36.58;;;7.60;99.50;;;;;;4946171;28;20046;-76
2022/03/25 05:44:14;;;;;;;73.18;38.60;;;7.60;99.50;;;;;;4965009;28;20371;-76
2022/03/25 05:46:40;;;;;;;73.25;40.03;;;7.60;99.60;;;;;;4979138;28;20719;-78
2022/03/25 05:49:06;;;;;;;71.60;37.53;;;7.60;99.70;;;;;;4979647;28;20490;-76
2022/03/25 05:51:32;;;;;;;67.15;37.20;;;7.70;99.90;;;;;;4962752;28;20026;-77
2022/03/25 05:53:57;;;;;;;68.57;36.33;;;7.70;99.90;;;;;;4951645;28;20501;-76
2022/03/25 05:56:24;;;;;;;71.95;37.03;;;7.70;99.90;;;;;;4985211;28;20026;-76
2022/03/25 05:58:49;;;;;;;69.10;37.92;;;7.60;99.70;;;;;;4990962;28;20026;-76
2022/03/25 06:01:15;;;;;;;71.20;36.38;;;7.70;99.80;;;;;;4971186;28;20646;-77
2022/03/25 06:03:42;;;;;;;80.10;41.22;;;7.70;99.90;;;;;;4989270;28;20437;-76
2022/03/25 06:06:07;;;;;;;74.38;41.15;;;7.80;99.90;;;;;;4971616;28;20106;-74
2022/03/25 06:08:33;;;;;;;79.40;40.28;;;7.80;99.90;;;;;;4957763;28;20739;-75
2022/03/25 06:10:59;;;;;;;74.13;38.60;;;7.80;99.90;;;;;;4963446;28;20034;-77
2022/03/25 06:13:30;;;;;;;75.95;40.67;;;7.80;99.90;;;;;;4955247;28;20501;-77
2022/03/25 06:15:56;;;;;;;79.43;40.63;;;7.80;99.90;;;;;;4981343;28;20026;-77
2022/03/25 06:18:22;;;;;;;77.57;40.72;;;7.90;99.90;;;;;;4964846;28;20026;-77
2022/03/25 06:20:49;;;;;;;79.88;42.13;;;7.80;99.90;;;;;;4963766;28;20037;-77
2022/03/25 06:23:15;;;;;;;80.72;40.13;;;7.90;99.90;;;;;;4970908;28;20026;-78
2022/03/25 06:25:42;;;;;;;86.50;45.60;;;7.90;99.90;;;;;;4960195;28;20037;-78
2022/03/25 06:28:07;;;;;;;87.03;44.38;;;7.90;99.90;;;;;;4979094;28;20073;-77
2022/03/25 06:30:38;;;;;;;86.72;45.08;;;8.00;99.90;;;;;;4961317;28;20058;-77
2022/03/25 06:33:09;;;;;;;93.10;46.00;;;8.00;99.90;;;;;;4963104;28;21090;-77
2022/03/25 06:35:38;;;;;;;87.70;44.22;;;8.00;99.90;;;;;;4962474;28;20125;-75
2022/03/25 06:38:05;;;;;;;91.63;47.78;;;8.10;99.90;;;;;;4978662;28;20406;-76
2022/03/25 06:40:31;;;;;;;101.32;50.67;;;8.20;99.90;;;;;;4966733;28;20037;-76
2022/03/25 06:42:57;;;;;;;98.60;47.95;;;8.20;99.90;;;;;;4960318;28;20026;-75
2022/03/25 06:45:24;;;;;;;90.68;45.40;;;8.20;99.90;;;;;;4968396;28;20031;-76
2022/03/25 06:47:50;;;;;;;99.35;46.83;;;8.20;99.90;;;;;;4962686;28;20557;-75
2022/03/25 06:50:18;;;;;;;89.28;46.28;;;8.20;99.90;;;;;;4976762;28;20037;-76
2022/03/25 06:52:46;;;;;;;86.97;47.15;;;8.30;99.90;;;;;;4977485;28;20041;-77
2022/03/25 06:55:12;;;;;;;95.55;47.75;;;8.30;99.90;;;;;;4978013;28;20108;-76
2022/03/25 06:57:39;;;;;;;108.78;53.00;;;8.40;99.90;;;;;;4947504;28;20603;-75
2022/03/25 07:00:12;;;;;;;108.57;52.55;;;8.50;99.90;;;;;;4963835;28;20049;-75
2022/03/25 07:02:42;;;;;;;95.60;49.47;;;8.50;99.90;;;;;;4965847;28;20039;-75
2022/03/25 07:05:10;;;;;;;100.90;50.92;;;8.60;99.90;;;;;;4963816;28;20030;-75
2022/03/25 07:07:37;;;;;;;93.43;49.50;;;8.70;99.90;;;;;;4977863;28;20044;-76
2022/03/25 07:10:04;;;;;;;107.00;53.63;;;8.70;99.90;;;;;;4959451;28;20060;-76
2022/03/25 07:12:30;;;;;;;99.10;49.55;;;8.80;99.90;;;;;;4962064;28;20042;-76
2022/03/25 07:14:56;;;;;;;98.07;51.53;;;8.90;99.90;;;;;;4950856;28;20322;-77
2022/03/25 07:17:22;;;;;;;99.20;52.53;;;8.90;99.90;;;;;;4958500;28;20026;-75
2022/03/25 07:19:47;;;;;;;102.85;51.78;;;8.90;99.90;;;;;;4944368;28;20689;-75
2022/03/25 07:22:13;;;;;;;112.30;54.35;;;9.00;99.90;;;;;;4951826;28;20037;-76
2022/03/25 07:24:39;;;;;;;105.65;52.97;;;9.00;99.90;;;;;;4976864;28;20042;-75
2022/03/25 07:27:05;;;;;;;101.22;50.85;;;9.00;99.90;;;;;;4960410;28;20034;-76
2022/03/25 07:29:30;;;;;;;103.75;52.47;;;9.10;99.90;;;;;;4959315;28;20096;-76
2022/03/25 07:31:56;;;;;;;85.40;44.50;;;9.10;99.90;;;;;;4975939;28;20049;-75
2022/03/25 07:34:22;;;;;;;90.78;45.60;;;9.40;99.90;;;;;;4975724;28;20035;-75
2022/03/25 07:36:48;;;;;;;93.53;49.58;;;9.90;99.90;;;;;;4979408;28;20134;-75
2022/03/25 07:39:15;;;;;;;89.85;48.67;;;10.40;98.70;;;;;;4978798;28;20121;-76
2022/03/25 07:41:40;;;;;;;95.85;52.20;;;10.90;97.40;;;;;;4961892;28;20760;-76
2022/03/25 07:44:07;;;;;;;94.38;52.28;;;11.20;96.20;;;;;;4960148;28;20114;-76
2022/03/25 07:46:33;;;;;;;97.32;52.75;;;11.20;95.30;;;;;;4976093;28;20046;-75
2022/03/25 07:48:58;;;;;;;90.07;50.70;;;11.10;94.80;;;;;;4978392;28;20105;-75
2022/03/25 07:52:02;;;;;;;98.82;53.47;;;11.00;94.70;;;;;;4958780;28;20069;-77
2022/03/25 07:54:30;;;;;;;94.70;51.08;;;10.80;94.80;;;;;;4956351;28;20037;-78
2022/03/25 07:56:58;;;;;;;91.72;50.55;;;10.70;95.00;;;;;;4974588;28;20030;-79
2022/03/25 07:59:28;;;;;;;95.50;51.60;;;10.70;95.10;;;;;;4963521;28;20085;-79
2022/03/25 08:01:55;;;;;;;85.50;47.92;;;10.60;95.10;;;;;;4962802;28;20030;-78
2022/03/25 08:04:23;;;;;;;96.05;49.53;;;10.60;95.00;;;;;;4956950;28;20038;-78
2022/03/25 08:06:50;;;;;;;91.45;49.30;;;10.60;94.70;;;;;;4967522;28;20023;-78
2022/03/25 08:09:16;;;;;;;93.32;49.67;;;10.60;94.70;;;;;;4966344;28;20070;-79
2022/03/25 08:11:45;;;;;;;92.53;46.97;;;10.60;94.60;;;;;;4969348;28;20357;-79
2022/03/25 08:14:12;;;;;;;88.65;48.28;;;10.60;94.60;;;;;;4954241;28;20034;-78
2022/03/25 08:16:38;;;;;;;90.50;48.35;;;10.70;94.70;;;;;;4957677;28;20045;-76
2022/03/25 08:19:05;;;;;;;84.18;46.17;;;10.70;94.30;;;;;;4966071;28;20033;-76
2022/03/25 08:21:32;;;;;;;83.75;45.03;;;10.70;94.00;;;;;;4964288;28;20619;-79
2022/03/25 08:29:27;;;;;;;81.97;42.67;;;10.90;93.80;;;;;;4972882;28;20126;-78
2022/03/25 08:31:53;;;;;;;84.63;42.88;;;11.00;93.60;;;;;;4965225;28;20560;-78
2022/03/25 08:34:19;;;;;;;81.22;43.63;;;11.10;93.30;;;;;;4965221;28;20038;-78
2022/03/25 08:36:48;;;;;;;79.85;43.80;;;11.10;93.00;;;;;;4952455;28;20085;-77
2022/03/25 08:39:14;;;;;;;88.35;42.47;;;11.20;92.50;;;;;;4961954;28;20429;-77
2022/03/25 08:41:41;;;;;;;78.00;40.95;;;11.30;92.20;;;;;;4963231;28;20148;-79
2022/03/25 08:44:07;;;;;;;81.47;42.80;;;11.40;92.20;;;;;;4964866;28;20046;-78
2022/03/25 08:46:34;;;;;;;72.05;39.70;;;11.40;91.90;;;;;;4946305;28;20030;-79
2022/03/25 08:49:02;;;;;;;75.63;40.42;;;11.50;91.70;;;;;;4965700;28;20034;-77
2022/03/25 08:51:27;;;;;;;77.63;40.13;;;11.50;91.30;;;;;;4979989;28;20027;-78
2022/03/25 08:53:53;;;;;;;69.97;37.65;;;11.60;90.60;;;;;;4963541;28;20081;-78
2022/03/25 08:56:27;;;;;;;68.22;35.47;;;11.60;90.20;;;;;;4964803;28;20026;-78
2022/03/25 08:58:55;;;;;;;72.78;35.92;;;11.70;89.70;;;;;;4963746;28;20035;-79
2022/03/25 09:01:22;;;;;;;64.05;33.60;;;11.80;89.10;;;;;;4981340;28;20041;-78
2022/03/25 09:03:47;;;;;;;63.47;32.70;;;11.80;89.30;;;;;;4965513;28;20037;-79
2022/03/25 09:06:17;;;;;;;59.40;32.53;;;11.80;89.00;;;;;;4962753;28;20503;-78
2022/03/25 09:08:43;;;;;;;60.95;35.00;;;11.80;88.60;;;;;;4980057;28;20505;-78
2022/03/25 09:11:11;;;;;;;57.80;34.63;;;11.90;88.40;;;;;;4982695;28;20026;-78
2022/03/25 09:13:37;;;;;;;59.60;33.53;;;11.90;88.10;;;;;;4953646;28;20022;-78
2022/03/25 09:16:03;;;;;;;61.30;34.47;;;11.90;88.40;;;;;;4965373;28;20452;-79
2022/03/25 09:18:29;;;;;;;60.60;35.95;;;12.00;87.50;;;;;;4962324;28;20287;-78
2022/03/25 09:20:55;;;;;;;62.28;34.17;;;12.10;87.40;;;;;;4962352;28;20026;-77
2022/03/25 09:23:20;;;;;;;59.88;33.70;;;12.20;86.80;;;;;;4962140;28;20193;-77
2022/03/25 09:25:46;;;;;;;54.88;31.30;;;12.20;86.40;;;;;;4960519;28;20213;-79
2022/03/25 09:28:12;;;;;;;66.55;34.38;;;12.30;85.50;;;;;;4944774;28;20065;-78
2022/03/25 09:30:39;;;;;;;54.45;31.27;;;12.50;83.60;;;;;;4969400;28;20023;-78
2022/03/25 09:33:07;;;;;;;64.43;33.72;;;12.50;84.10;;;;;;4969145;28;20397;-78
2022/03/25 09:35:34;;;;;;;60.85;33.78;;;12.60;83.90;;;;;;4979313;28;20042;-78
2022/03/25 09:38:00;;;;;;;53.40;30.92;;;12.60;83.20;;;;;;4946399;28;20473;-78
2022/03/25 09:40:27;;;;;;;59.80;32.45;;;12.70;83.60;;;;;;4961392;28;20453;-80
2022/03/25 09:42:55;;;;;;;55.75;31.95;;;12.70;83.30;;;;;;4960367;28;20034;-78
2022/03/25 09:45:23;;;;;;;58.63;33.38;;;12.80;83.10;;;;;;4964310;28;20034;-78
2022/03/25 09:47:49;;;;;;;59.47;33.58;;;12.90;83.20;;;;;;4951500;28;20033;-78
2022/03/25 09:50:17;;;;;;;63.05;32.13;;;12.90;81.80;;;;;;4980599;28;20058;-78
2022/03/25 09:52:44;;;;;;;59.22;32.70;;;13.00;81.80;;;;;;4980957;28;20038;-78
2022/03/25 09:55:12;;;;;;;52.15;32.67;;;13.00;81.50;;;;;;4963800;28;20045;-78
2022/03/25 09:57:37;;;;;;;60.90;33.20;;;13.10;81.30;;;;;;4963989;28;20221;-78
2022/03/25 10:00:05;;;;;;;65.88;36.28;;;13.20;80.70;;;;;;4961039;28;20517;-78
2022/03/25 10:02:32;;;;;;;54.58;32.72;;;13.30;80.20;;;;;;4964198;28;20113;-78
2022/03/25 10:04:58;;;;;;;57.70;34.25;;;13.30;80.20;;;;;;4961888;28;20093;-78
2022/03/25 10:07:34;;;;;;;61.90;34.08;;;13.40;79.40;;;;;;4963514;28;20723;-78
2022/03/25 10:10:09;;;;;;;58.88;32.42;;;13.40;79.60;;;;;;4962167;28;20069;-78
2022/03/25 10:12:36;;;;;;;67.00;35.28;;;13.50;78.60;;;;;;4980973;28;20030;-77
2022/03/25 10:15:30;;;;;;;58.53;34.83;;;13.50;77.80;;;;;;4985308;28;20554;-78
2022/03/25 10:18:06;;;;;;;58.10;30.98;;;13.70;78.50;;;;;;4975570;28;20085;-78
2022/03/25 10:20:34;;;;;;;52.35;29.45;;;13.70;77.60;;;;;;4988439;28;20095;-79
2022/03/25 10:23:10;;;;;;;50.38;28.65;;;13.80;77.50;;;;;;4971496;28;20406;-77
2022/03/25 10:25:42;;;;;;;43.00;23.92;;;13.90;77.00;;;;;;4962371;28;20038;-77
2022/03/25 10:28:18;;;;;;;39.47;22.75;;;13.90;76.00;;;;;;4976191;28;20030;-77
2022/03/25 10:30:44;;;;;;;46.70;24.05;;;14.00;75.30;;;;;;4958894;28;20027;-77
2022/03/25 10:33:23;;;;;;;40.05;23.55;;;14.20;74.20;;;;;;4977610;28;20035;-78
2022/03/25 10:36:00;;;;;;;36.00;21.40;;;14.20;74.30;;;;;;4961095;28;20034;-77
2022/03/25 10:38:27;;;;;;;46.30;23.88;;;14.20;74.60;;;;;;4958425;28;20038;-78
2022/03/25 10:40:55;;;;;;;41.65;23.23;;;14.30;73.50;;;;;;4977223;28;20026;-77
2022/03/25 10:43:22;;;;;;;44.40;23.60;;;14.30;73.80;;;;;;4977116;28;20049;-76
2022/03/25 10:45:53;;;;;;;44.67;23.63;;;14.30;74.20;;;;;;4979616;28;20065;-77
2022/03/25 10:48:24;;;;;;;42.90;24.00;;;14.40;73.60;;;;;;4962502;28;20034;-77
2022/03/25 10:51:08;;;;;;;41.08;22.38;;;14.50;73.30;;;;;;4959899;28;20033;-77
2022/03/25 10:53:38;;;;;;;43.72;23.45;;;14.60;72.50;;;;;;4976077;28;20052;-77
2022/03/25 10:56:06;;;;;;;43.03;24.83;;;14.80;71.00;;;;;;4961131;28;20195;-78
2022/03/25 10:58:36;;;;;;;38.42;22.17;;;14.90;71.00;;;;;;4958828;28;20031;-76
2022/03/25 11:01:07;;;;;;;39.35;21.30;;;14.90;70.50;;;;;;4973466;28;20162;-77
2022/03/25 11:03:34;;;;;;;44.25;23.45;;;15.10;70.60;;;;;;4956464;28;20678;-77
2022/03/25 11:05:59;;;;;;;45.65;23.13;;;15.40;69.60;;;;;;4958603;28;20693;-77
2022/03/25 11:08:25;;;;;;;46.13;22.33;;;15.90;69.00;;;;;;4960168;28;20070;-78
2022/03/25 11:10:54;;;;;;;37.15;20.70;;;17.10;68.30;;;;;;4958059;28;20030;-78
2022/03/25 11:13:22;;;;;;;39.10;20.58;;;18.80;64.50;;;;;;4972456;28;20034;-78
2022/03/25 11:15:51;;;;;;;34.60;19.42;;;20.50;57.90;;;;;;4965885;28;20141;-79
2022/03/25 11:18:19;;;;;;;30.42;17.80;;;21.80;53.40;;;;;;4987178;28;20031;-78
2022/03/25 11:20:45;;;;;;;29.70;16.85;;;23.20;50.30;;;;;;4965783;28;20038;-79
2022/03/25 11:23:19;;;;;;;30.75;17.60;;;24.40;46.70;;;;;;4982506;28;20042;-79
2022/03/25 11:25:51;;;;;;;30.40;19.08;;;25.50;44.50;;;;;;4948136;28;20363;-78
2022/03/25 11:28:20;;;;;;;31.70;20.23;;;26.20;40.90;;;;;;4963597;28;20695;-78
2022/03/25 11:30:57;;;;;;;33.03;20.10;;;26.50;39.90;;;;;;4980581;28;20038;-79
2022/03/25 11:33:23;;;;;;;25.25;17.20;;;26.00;37.60;;;;;;4947881;28;20030;-77
2022/03/25 11:36:15;;;;;;;26.10;17.33;;;25.80;39.30;;;;;;4978622;28;20068;-77
2022/03/25 11:38:45;;;;;;;30.33;20.17;;;25.20;39.70;;;;;;4979167;28;20104;-75
2022/03/25 11:41:23;;;;;;;32.40;19.48;;;24.80;40.30;;;;;;4980662;28;20495;-75
2022/03/25 11:44:13;;;;;;;34.92;21.40;;;23.90;41.80;;;;;;4980324;28;20077;-73
2022/03/25 11:47:11;;;;;;;;;;;23.30;44.30;;;;;;4965200;28;20026;-73
2022/03/25 11:49:38;;;;;;;26.80;16.02;;;22.60;43.10;;;;;;4938923;28;19953;-72
2022/03/25 11:52:22;;;;;;;27.98;18.27;;;22.20;43.90;;;;;;4980354;28;20410;-75
2022/03/25 11:54:58;;;;;;;25.92;16.40;;;22.30;41.90;;;;;;4979760;28;20055;-74
2022/03/25 11:57:28;;;;;;;27.83;16.70;;;22.00;43.80;;;;;;4964939;28;20038;-75
2022/03/25 12:00:04;;;;;;;26.87;18.30;;;21.50;44.30;;;;;;4982210;28;20030;-73
2022/03/25 12:02:36;;;;;;;25.55;17.80;;;20.90;44.00;;;;;;4982171;28;20058;-74
2022/03/25 12:05:24;;;;;;;26.80;17.98;;;20.50;46.30;;;;;;4964616;28;20069;-80
2022/03/25 12:08:22;;;;;;;29.73;17.85;;;20.30;45.70;;;;;;4949882;28;20352;-81
2022/03/25 12:10:49;;;;;;;28.77;17.33;;;20.30;44.80;;;;;;4976917;28;20023;-81
2022/03/25 12:13:16;;;;;;;29.98;16.45;;;20.30;45.00;;;;;;4991734;28;20418;-79
2022/03/25 12:15:44;;;;;;;30.75;16.83;;;20.30;45.30;;;;;;4992101;28;20022;-78
2022/03/25 12:18:41;;;;;;;25.20;17.23;;;20.50;45.30;;;;;;4979981;28;20085;-78
2022/03/25 12:21:25;;;;;;;28.23;16.27;;;20.60;45.00;;;;;;4959585;28;20058;-78
2022/03/25 12:23:59;;;;;;;30.17;18.27;;;20.80;45.30;;;;;;4972090;28;20098;-80
2022/03/25 12:26:32;;;;;;;28.50;15.88;;;20.90;44.80;;;;;;4970394;28;20042;-81
2022/03/25 12:28:59;;;;;;;25.05;15.07;;;21.30;44.10;;;;;;4972590;28;20049;-78
2022/03/25 12:31:25;;;;;;;28.92;16.95;;;21.70;43.10;;;;;;4991474;28;20054;-79
2022/03/25 12:33:57;;;;;;;25.50;16.75;;;22.20;42.50;;;;;;4976500;28;20030;-79
2022/03/25 12:36:27;;;;;;;25.67;14.85;;;22.40;42.70;;;;;;4992074;28;20133;-79
2022/03/25 12:38:55;;;;;;;29.88;17.02;;;22.60;42.60;;;;;;4959754;28;20027;-81
2022/03/25 12:41:29;;;;;;;30.05;18.23;;;22.40;42.30;;;;;;4961220;28;20034;-81
2022/03/25 12:43:59;;;;;;;26.95;16.92;;;21.70;43.00;;;;;;4973365;28;20565;-78